createdAt,value
2019-02-06T00:00:30.063Z,237.20
2019-02-06T00:02:59.228Z,246.20
2019-02-06T00:05:29.142Z,238.17
2019-02-06T00:15:37.040Z,244.50
2019-02-06T00:18:07.338Z,241.90
2019-02-06T00:20:37.462Z,245.10
2019-02-06T00:23:07.286Z,246.03
2019-02-06T00:25:37.222Z,236.97
2019-02-06T00:28:07.011Z,229.20
2019-02-06T00:30:37.382Z,238.53
2019-02-06T00:33:07.349Z,239.23
2019-02-06T00:35:36.668Z,232.83
2019-02-06T00:38:06.044Z,242.30
2019-02-06T00:40:35.526Z,287.10
2019-02-06T00:43:04.942Z,250.20
2019-02-06T00:45:40.482Z,240.83
2019-02-06T00:48:11.015Z,264.27
2019-02-06T00:50:40.829Z,253.90
2019-02-06T00:53:10.028Z,247.90
2019-02-06T00:55:39.100Z,243.33
2019-02-06T00:58:08.739Z,235.03
2019-02-06T01:00:38.747Z,225.70
2019-02-06T01:03:08.348Z,231.70
2019-02-06T01:05:38.852Z,233.07
2019-02-06T01:08:07.665Z,244.17
2019-02-06T01:10:36.664Z,222.13
2019-02-06T01:13:06.186Z,224.10
2019-02-06T01:15:36.297Z,237.40
2019-02-06T01:18:05.594Z,253.60
2019-02-06T01:20:35.217Z,248.33
2019-02-06T01:23:05.222Z,243.63
2019-02-06T01:25:34.567Z,249.73
2019-02-06T01:28:04.123Z,250.17
2019-02-06T01:30:33.935Z,224.60
2019-02-06T01:33:03.338Z,233.90
2019-02-06T01:35:33.453Z,236.10
2019-02-06T01:38:03.899Z,250.00
2019-02-06T01:40:33.851Z,235.63
2019-02-06T01:43:04.010Z,248.73
2019-02-06T01:45:33.734Z,236.57
2019-02-06T01:48:03.775Z,214.87
2019-02-06T01:50:33.011Z,225.23
2019-02-06T01:53:03.085Z,242.17
2019-02-06T01:55:33.499Z,243.97
2019-02-06T01:58:03.697Z,250.87
2019-02-06T02:00:33.869Z,243.13
2019-02-06T02:03:04.366Z,216.67
2019-02-06T02:05:34.384Z,235.33
2019-02-06T02:08:04.416Z,227.30
2019-02-06T02:10:34.211Z,231.13
2019-02-06T02:13:04.191Z,240.30
2019-02-06T02:15:34.468Z,259.43
2019-02-06T02:18:04.418Z,263.37
2019-02-06T02:20:33.466Z,264.80
2019-02-06T02:23:03.379Z,291.23
2019-02-06T02:25:32.622Z,400.60
2019-02-06T02:28:01.698Z,321.07
2019-02-06T02:30:31.072Z,320.83
2019-02-06T02:33:00.150Z,334.10
2019-02-06T02:35:29.226Z,324.50
2019-02-06T02:37:58.243Z,324.67
2019-02-06T02:40:27.681Z,323.90
2019-02-06T02:42:56.829Z,314.07
2019-02-06T02:45:26.233Z,336.67
2019-02-06T02:47:55.269Z,311.07
2019-02-06T02:50:25.152Z,296.80
2019-02-06T02:52:55.635Z,308.20
2019-02-06T02:55:25.671Z,307.97
2019-02-06T02:57:54.979Z,318.47
2019-02-06T03:00:25.334Z,316.33
2019-02-06T03:02:55.537Z,309.03
2019-02-06T03:05:25.774Z,306.37
2019-02-06T03:07:55.895Z,293.97
2019-02-06T03:10:25.508Z,285.50
2019-02-06T03:12:55.424Z,284.27
2019-02-06T03:15:25.302Z,282.20
2019-02-06T03:17:55.859Z,264.87
2019-02-06T03:20:26.507Z,267.27
2019-02-06T03:22:56.594Z,261.00
2019-02-06T03:25:26.366Z,276.93
2019-02-06T03:27:55.933Z,271.17
2019-02-06T03:30:25.872Z,269.73
2019-02-06T03:32:55.077Z,261.13
2019-02-06T03:35:24.166Z,256.30
2019-02-06T03:37:53.388Z,275.37
2019-02-06T03:40:22.431Z,254.03
2019-02-06T03:42:51.512Z,250.63
2019-02-06T03:45:21.111Z,267.00
2019-02-06T03:47:50.227Z,263.43
2019-02-06T03:50:19.446Z,250.97
2019-02-06T03:52:48.703Z,234.60
2019-02-06T03:55:17.708Z,242.47
2019-02-06T03:57:47.423Z,237.40
2019-02-06T04:00:16.913Z,238.40
2019-02-06T04:02:45.987Z,234.50
2019-02-06T04:05:15.236Z,237.43
2019-02-06T04:07:44.306Z,222.73
2019-02-06T04:10:13.502Z,221.90
2019-02-06T04:12:42.624Z,221.33
2019-02-06T04:15:11.988Z,230.93
2019-02-06T04:17:41.831Z,223.40
2019-02-06T04:20:16.962Z,361.37
2019-02-06T04:22:47.615Z,225.50
2019-02-06T04:25:17.384Z,251.10
2019-02-06T04:27:47.544Z,213.77
2019-02-06T04:30:17.331Z,202.20
2019-02-06T04:32:47.058Z,207.10
2019-02-06T04:35:16.558Z,219.97
2019-02-06T04:37:47.128Z,193.47
2019-02-06T04:40:16.651Z,195.03
2019-02-06T04:42:46.253Z,192.93
2019-02-06T04:45:15.579Z,202.20
2019-02-06T04:47:45.923Z,240.30
2019-02-06T04:50:15.613Z,248.77
2019-02-06T04:58:10.264Z,187.57
2019-02-06T05:00:51.035Z,188.83
2019-02-06T05:03:31.832Z,189.17
2019-02-06T05:06:13.093Z,176.57
2019-02-06T05:08:53.871Z,209.53
2019-02-06T05:11:34.408Z,215.50
2019-02-06T05:14:15.098Z,176.40
2019-02-06T05:16:56.314Z,188.23
2019-02-06T05:19:37.647Z,189.33
2019-02-06T05:22:18.104Z,174.60
2019-02-06T05:24:59.501Z,172.07
2019-02-06T05:27:39.956Z,158.47
2019-02-06T05:30:20.508Z,167.27
2019-02-06T05:33:01.181Z,157.83
2019-02-06T05:35:41.747Z,171.83
2019-02-06T05:38:22.409Z,154.60
2019-02-06T05:41:02.608Z,162.60
2019-02-06T05:43:43.448Z,162.10
2019-02-06T05:46:24.649Z,148.13
2019-02-06T05:49:05.093Z,142.43
2019-02-06T05:51:45.646Z,139.23
2019-02-06T05:54:26.871Z,141.80
2019-02-06T05:57:08.153Z,144.67
2019-02-06T05:59:48.794Z,144.13
2019-02-06T06:02:29.451Z,142.70
2019-02-06T06:05:10.387Z,138.03
2019-02-06T06:07:51.093Z,139.50
2019-02-06T06:10:31.986Z,141.73
2019-02-06T06:13:13.278Z,142.23
2019-02-06T06:15:54.553Z,131.00
2019-02-06T06:18:35.823Z,140.80
2019-02-06T06:21:17.107Z,278.10
2019-02-06T06:23:57.888Z,148.40
2019-02-06T06:26:38.818Z,157.43
2019-02-06T06:29:19.689Z,177.67
2019-02-06T06:32:00.691Z,281.70
2019-02-06T06:34:41.076Z,196.20
2019-02-06T06:37:22.562Z,184.97
2019-02-06T06:40:03.884Z,179.13
2019-02-06T06:42:44.559Z,170.97
2019-02-06T06:45:25.428Z,165.23
2019-02-06T06:48:06.186Z,168.20
2019-02-06T06:50:47.793Z,166.07
2019-02-06T06:53:28.970Z,158.60
2019-02-06T06:56:09.589Z,176.20
2019-02-06T06:58:50.295Z,197.23
2019-02-06T07:01:31.363Z,207.10
2019-02-06T07:04:12.511Z,181.17
2019-02-06T07:06:53.210Z,161.13
2019-02-06T07:09:33.441Z,163.67
2019-02-06T07:12:14.819Z,143.40
2019-02-06T07:14:55.085Z,146.17
2019-02-06T07:17:35.835Z,144.70
2019-02-06T07:20:17.006Z,138.97
2019-02-06T07:22:57.727Z,147.73
2019-02-06T07:25:38.277Z,145.10
2019-02-06T07:28:18.959Z,119.23
2019-02-06T07:30:59.929Z,118.07
2019-02-06T07:33:40.812Z,118.20
2019-02-06T07:36:21.258Z,118.20
2019-02-06T07:39:02.035Z,112.00
2019-02-06T07:41:43.422Z,117.83
2019-02-06T07:44:24.035Z,124.20
2019-02-06T07:47:04.325Z,111.57
2019-02-06T07:49:45.270Z,117.73
2019-02-06T07:52:25.907Z,112.40
2019-02-06T07:55:06.950Z,125.20
2019-02-06T07:57:48.156Z,121.60
2019-02-06T08:00:28.488Z,114.20
2019-02-06T08:03:09.470Z,111.17
2019-02-06T08:05:50.443Z,117.43
2019-02-06T08:08:36.021Z,106.97
2019-02-06T08:11:13.606Z,105.03
2019-02-06T08:13:54.386Z,102.07
2019-02-06T08:16:35.090Z,97.40
2019-02-06T08:23:33.421Z,98.80
2019-02-06T08:26:13.939Z,96.73
2019-02-06T08:28:54.820Z,103.43
2019-02-06T08:31:35.795Z,101.23
2019-02-06T08:34:16.589Z,99.27
2019-02-06T08:36:57.212Z,106.33
2019-02-06T08:39:37.330Z,105.60
2019-02-06T08:42:17.851Z,106.83
2019-02-06T08:44:59.209Z,106.30
2019-02-06T08:47:39.879Z,112.60
2019-02-06T08:50:20.047Z,107.27
2019-02-06T08:53:00.922Z,110.93
2019-02-06T08:55:41.622Z,114.27
2019-02-06T08:58:22.712Z,118.93
2019-02-06T09:01:15.508Z,111.53
2019-02-06T09:03:55.898Z,111.33
2019-02-06T09:06:36.552Z,107.77
2019-02-06T09:09:17.191Z,106.77
2019-02-06T09:11:57.772Z,113.27
2019-02-06T09:14:39.038Z,104.70
2019-02-06T09:17:20.321Z,100.37
2019-02-06T09:20:00.987Z,95.47
2019-02-06T09:22:41.907Z,95.07
2019-02-06T09:25:22.240Z,86.47
2019-02-06T09:28:03.519Z,90.30
2019-02-06T09:30:43.905Z,87.33
2019-02-06T09:33:24.064Z,82.03
2019-02-06T09:36:05.107Z,88.10
2019-02-06T09:38:45.873Z,85.83
2019-02-06T09:41:27.161Z,85.57
2019-02-06T09:44:08.022Z,79.30
2019-02-06T09:46:49.225Z,80.70
2019-02-06T09:49:29.971Z,90.43
2019-02-06T09:52:10.861Z,76.77
2019-02-06T09:54:51.597Z,76.27
2019-02-06T09:57:35.347Z,76.53
2019-02-06T10:00:14.389Z,79.87
2019-02-06T10:02:55.244Z,75.23
2019-02-06T10:05:36.451Z,74.27
2019-02-06T10:08:16.680Z,78.90
2019-02-06T10:10:57.904Z,76.27
2019-02-06T10:13:39.178Z,79.10
2019-02-06T10:16:20.208Z,72.80
2019-02-06T10:19:00.522Z,88.80
2019-02-06T10:21:41.742Z,68.07
2019-02-06T10:24:22.291Z,64.47
2019-02-06T10:27:03.084Z,71.30
2019-02-06T10:29:44.150Z,73.70
2019-02-06T10:32:24.347Z,72.33
2019-02-06T10:35:05.485Z,70.97
2019-02-06T10:37:46.299Z,68.03
2019-02-06T10:40:26.954Z,66.33
2019-02-06T10:43:07.692Z,72.67
2019-02-06T10:45:48.862Z,61.40
2019-02-06T10:48:29.502Z,64.50
2019-02-06T10:51:09.287Z,66.13
2019-02-06T10:53:49.747Z,68.47
2019-02-06T10:56:30.631Z,67.80
2019-02-06T10:59:11.403Z,63.80
2019-02-06T11:01:52.304Z,75.53
2019-02-06T11:04:32.932Z,70.00
2019-02-06T11:07:13.689Z,80.27
2019-02-06T11:09:53.977Z,68.97
2019-02-06T11:12:34.861Z,72.40
2019-02-06T11:15:16.144Z,75.63
2019-02-06T11:17:56.877Z,75.87
2019-02-06T11:20:37.844Z,86.47
2019-02-06T11:23:18.381Z,69.00
2019-02-06T11:25:59.666Z,82.10
2019-02-06T11:28:40.361Z,94.20
2019-02-06T11:31:20.942Z,74.00
2019-02-06T11:34:01.687Z,89.97
2019-02-06T11:36:42.660Z,76.33
2019-02-06T11:39:23.937Z,82.03
2019-02-06T11:42:04.716Z,79.10
2019-02-06T11:44:45.790Z,87.40
2019-02-06T11:47:26.506Z,83.37
2019-02-06T11:50:07.036Z,84.67
2019-02-06T11:52:47.805Z,94.50
2019-02-06T11:55:28.972Z,87.63
2019-02-06T11:58:09.939Z,91.23
2019-02-06T12:00:50.536Z,82.53
2019-02-06T12:03:30.630Z,79.97
2019-02-06T12:06:11.501Z,80.87
2019-02-06T12:08:51.797Z,85.30
2019-02-06T12:11:32.680Z,82.73
2019-02-06T12:14:13.540Z,84.03
2019-02-06T12:16:54.511Z,90.03
2019-02-06T12:19:35.478Z,105.23
2019-02-06T12:22:16.477Z,93.67
2019-02-06T12:24:57.335Z,99.90
2019-02-06T12:27:38.222Z,89.57
2019-02-06T12:30:18.973Z,91.87
2019-02-06T12:32:59.834Z,90.33
2019-02-06T12:35:40.500Z,91.40
2019-02-06T12:38:21.579Z,94.07
2019-02-06T12:41:02.563Z,88.40
2019-02-06T12:43:43.423Z,89.57
2019-02-06T12:46:24.092Z,111.20
2019-02-06T12:49:04.950Z,100.20
2019-02-06T12:51:45.632Z,96.70
2019-02-06T12:54:26.540Z,97.30
2019-02-06T12:57:07.020Z,100.77
2019-02-06T12:59:47.942Z,103.23
2019-02-06T13:02:28.916Z,108.30
2019-02-06T13:05:09.486Z,135.87
2019-02-06T13:07:50.713Z,119.17
2019-02-06T13:10:34.519Z,138.57
2019-02-06T13:13:12.087Z,124.43
2019-02-06T13:15:52.765Z,128.77
2019-02-06T13:18:33.931Z,125.63
2019-02-06T13:21:14.847Z,124.00
2019-02-06T13:23:57.601Z,122.70
2019-02-06T13:26:38.494Z,128.33
2019-02-06T13:29:19.041Z,142.13
2019-02-06T13:32:00.032Z,151.80
2019-02-06T13:34:40.710Z,142.57
2019-02-06T13:37:21.358Z,142.90
2019-02-06T13:40:01.903Z,126.37
2019-02-06T13:42:42.579Z,124.40
2019-02-06T13:45:23.571Z,117.23
2019-02-06T13:48:04.548Z,124.50
2019-02-06T13:50:45.251Z,144.10
2019-02-06T13:53:25.820Z,114.27
2019-02-06T13:56:06.748Z,117.83
2019-02-06T13:58:47.726Z,175.50
2019-02-06T14:01:28.479Z,115.93
2019-02-06T14:04:09.325Z,130.13
2019-02-06T14:06:50.039Z,120.47
2019-02-06T14:09:30.541Z,145.87
2019-02-06T14:12:13.429Z,134.20
2019-02-06T14:14:52.545Z,129.73
2019-02-06T14:17:33.188Z,140.03
2019-02-06T14:20:14.206Z,139.17
2019-02-06T14:22:54.011Z,152.33
2019-02-06T14:25:34.038Z,168.87
2019-02-06T14:28:14.554Z,155.53
2019-02-06T14:30:54.552Z,148.27
2019-02-06T14:33:34.670Z,137.97
2019-02-06T14:36:15.256Z,145.77
2019-02-06T14:38:55.118Z,161.20
2019-02-06T14:41:35.095Z,156.73
2019-02-06T14:44:15.534Z,164.33
2019-02-06T14:46:55.677Z,172.67
2019-02-06T14:49:35.677Z,165.77
2019-02-06T14:52:16.451Z,174.67
2019-02-06T14:54:57.628Z,194.17
2019-02-06T14:57:37.819Z,164.50
2019-02-06T15:00:18.857Z,165.07
2019-02-06T15:02:59.826Z,212.27
2019-02-06T15:05:40.802Z,174.47
2019-02-06T15:08:21.740Z,179.13
2019-02-06T15:11:02.436Z,170.67
2019-02-06T15:13:43.329Z,154.03
2019-02-06T15:16:23.984Z,146.93
2019-02-06T15:19:04.240Z,154.83
2019-02-06T15:21:45.311Z,160.50
2019-02-06T15:24:25.919Z,163.70
2019-02-06T15:27:06.348Z,168.37
2019-02-06T15:29:46.586Z,156.60
2019-02-06T15:32:27.162Z,162.97
2019-02-06T15:35:07.815Z,159.13
2019-02-06T15:37:48.824Z,186.17
2019-02-06T15:40:29.753Z,205.63
2019-02-06T15:43:10.739Z,193.13
2019-02-06T15:45:51.749Z,253.67
2019-02-06T15:48:32.541Z,248.47
2019-02-06T15:51:13.061Z,233.63
2019-02-06T15:53:53.419Z,225.33
2019-02-06T15:56:33.721Z,233.80
2019-02-06T15:59:14.778Z,208.67
2019-02-06T16:01:55.197Z,209.23
2019-02-06T16:04:36.140Z,219.53
2019-02-06T16:07:16.641Z,229.93
2019-02-06T16:09:57.674Z,220.33
2019-02-06T16:12:38.482Z,232.10
2019-02-06T16:15:18.800Z,225.67
2019-02-06T16:17:59.659Z,224.60
2019-02-06T16:20:40.927Z,211.33
2019-02-06T16:23:21.997Z,218.20
2019-02-06T16:26:02.543Z,191.30
2019-02-06T16:28:43.006Z,215.97
2019-02-06T16:31:23.931Z,228.40
2019-02-06T16:34:04.465Z,205.57
2019-02-06T16:36:45.217Z,200.03
2019-02-06T16:39:26.187Z,212.00
2019-02-06T16:42:07.065Z,207.70
2019-02-06T16:44:47.985Z,212.27
2019-02-06T16:47:28.940Z,211.00
2019-02-06T16:50:09.687Z,208.73
2019-02-06T16:52:50.229Z,231.73
2019-02-06T16:55:31.192Z,212.57
2019-02-06T16:58:11.831Z,227.60
2019-02-06T17:00:52.787Z,221.37
2019-02-06T17:03:33.500Z,238.40
2019-02-06T17:06:14.173Z,240.13
2019-02-06T17:08:54.496Z,230.67
2019-02-06T17:11:35.827Z,225.00
2019-02-06T17:14:16.623Z,228.23
2019-02-06T17:16:57.141Z,214.47
2019-02-06T17:19:37.909Z,214.77
2019-02-06T17:22:18.895Z,243.03
2019-02-06T17:24:59.829Z,268.17
2019-02-06T17:27:40.063Z,265.87
2019-02-06T17:30:20.693Z,237.37
2019-02-06T17:33:02.181Z,235.80
2019-02-06T17:35:42.326Z,228.40
2019-02-06T17:38:22.844Z,239.30
2019-02-06T17:41:03.095Z,231.47
2019-02-06T17:43:43.740Z,233.93
2019-02-06T17:46:23.892Z,228.30
2019-02-06T17:49:05.212Z,247.20
2019-02-06T17:51:45.898Z,247.80
2019-02-06T17:54:26.892Z,219.80
2019-02-06T17:57:07.885Z,233.80
2019-02-06T17:59:48.525Z,224.90
2019-02-06T18:02:28.895Z,226.43
2019-02-06T18:05:09.862Z,227.63
2019-02-06T18:07:50.716Z,239.77
2019-02-06T18:10:32.015Z,226.03
2019-02-06T18:13:12.690Z,234.80
2019-02-06T18:15:54.225Z,233.73
2019-02-06T18:18:35.272Z,236.93
2019-02-06T18:21:16.151Z,239.17
2019-02-06T18:23:57.090Z,236.77
2019-02-06T18:26:38.171Z,238.77
2019-02-06T18:29:18.720Z,254.20
2019-02-06T18:31:58.920Z,232.83
2019-02-06T18:34:40.060Z,239.07
2019-02-06T18:37:20.836Z,261.00
2019-02-06T18:40:01.361Z,272.50
2019-02-06T18:42:42.088Z,261.40
2019-02-06T18:45:23.279Z,268.20
2019-02-06T18:48:03.834Z,244.10
2019-02-06T18:50:44.511Z,233.10
2019-02-06T18:53:25.436Z,232.73
2019-02-06T18:56:06.066Z,242.37
2019-02-06T18:58:46.158Z,244.67
2019-02-06T19:01:27.169Z,265.63
2019-02-06T19:04:10.989Z,227.47
2019-02-06T19:06:49.934Z,252.50
2019-02-06T19:09:30.670Z,270.23
2019-02-06T19:12:12.363Z,247.80
2019-02-06T19:14:53.759Z,242.97
2019-02-06T19:20:18.879Z,236.83
2019-02-06T19:22:59.656Z,233.13
2019-02-06T19:25:40.510Z,233.53
2019-02-06T19:28:21.427Z,225.13
2019-02-06T19:31:02.145Z,225.53
2019-02-06T19:33:43.335Z,220.67
2019-02-06T19:36:23.793Z,225.47
2019-02-06T19:39:04.232Z,226.83
2019-02-06T19:41:44.941Z,222.40
2019-02-06T19:44:25.693Z,214.27
2019-02-06T19:47:06.548Z,218.67
2019-02-06T19:49:46.919Z,231.00
2019-02-06T19:52:27.183Z,223.73
2019-02-06T19:55:08.560Z,216.03
2019-02-06T19:57:49.447Z,225.80
2019-02-06T20:00:30.067Z,227.20
2019-02-06T20:03:10.688Z,219.37
2019-02-06T20:05:51.113Z,220.87
2019-02-06T20:08:32.088Z,222.90
2019-02-06T20:11:12.458Z,222.90
2019-02-06T20:13:53.336Z,210.93
2019-02-06T20:16:34.557Z,212.93
2019-02-06T20:19:15.502Z,236.30
2019-02-06T20:24:41.100Z,246.27
2019-02-06T20:27:21.782Z,229.60
2019-02-06T20:30:02.018Z,249.33
2019-02-06T20:32:42.059Z,238.57
2019-02-06T20:35:22.441Z,226.00
2019-02-06T20:38:03.503Z,226.40
2019-02-06T20:40:43.433Z,232.60
2019-02-06T20:43:23.782Z,246.03
2019-02-06T20:46:04.906Z,243.97
2019-02-06T20:48:45.408Z,219.10
2019-02-06T20:51:26.158Z,214.23
2019-02-06T20:54:07.347Z,219.10
2019-02-06T20:56:47.779Z,222.60
2019-02-06T20:59:28.756Z,242.70
2019-02-06T21:02:08.936Z,245.13
2019-02-06T21:04:49.988Z,205.17
2019-02-06T21:07:31.518Z,215.23
2019-02-06T21:10:12.154Z,240.67
2019-02-06T21:12:52.860Z,222.23
2019-02-06T21:15:33.767Z,227.47
2019-02-06T21:18:14.495Z,239.57
2019-02-06T21:20:55.674Z,227.60
2019-02-06T21:23:36.597Z,213.20
2019-02-06T21:26:17.904Z,237.37
2019-02-06T21:28:58.723Z,249.03
2019-02-06T21:31:39.934Z,229.10
2019-02-06T21:34:21.111Z,203.87
2019-02-06T21:37:02.787Z,222.20
2019-02-06T21:39:43.670Z,230.30
2019-02-06T21:42:24.544Z,225.37
2019-02-06T21:45:05.692Z,222.37
2019-02-06T21:47:46.578Z,237.47
2019-02-06T21:50:27.768Z,230.30
2019-02-06T21:53:08.313Z,217.30
2019-02-06T21:55:49.130Z,212.10
2019-02-06T21:58:29.852Z,201.80
2019-02-06T22:01:11.030Z,208.33
2019-02-06T22:03:51.683Z,213.50
2019-02-06T22:06:32.059Z,207.17
2019-02-06T22:09:13.663Z,216.30
2019-02-06T22:11:54.703Z,211.40
2019-02-06T22:14:35.304Z,200.40
2019-02-06T22:17:16.531Z,207.43
2019-02-06T22:20:01.481Z,200.30
2019-02-06T22:22:43.027Z,214.27
2019-02-06T22:25:23.924Z,204.93
2019-02-06T22:28:04.467Z,327.60
2019-02-06T22:30:45.240Z,442.43
2019-02-06T22:33:26.389Z,1467.57
2019-02-06T22:36:07.200Z,938.47
2019-02-06T22:38:48.051Z,1763.47
2019-02-06T22:41:28.706Z,1170.27
2019-02-06T22:44:09.091Z,601.83
2019-02-06T22:46:49.945Z,677.33
2019-02-06T22:49:30.873Z,1999.90
2019-02-06T22:52:11.700Z,1999.90
2019-02-06T22:54:52.153Z,792.27
2019-02-06T22:57:32.609Z,843.00
2019-02-06T23:00:23.908Z,1186.90
2019-02-06T23:02:54.781Z,976.30
2019-02-06T23:05:35.031Z,1295.07
2019-02-06T23:08:15.997Z,631.43
2019-02-06T23:10:56.664Z,1999.90
2019-02-06T23:13:37.316Z,922.03
2019-02-06T23:16:18.113Z,688.47
2019-02-06T23:18:58.031Z,614.13
2019-02-06T23:21:38.966Z,475.73
2019-02-06T23:24:20.450Z,491.50
2019-02-06T23:27:01.495Z,518.80
2019-02-06T23:29:42.401Z,969.17
2019-02-06T23:32:22.833Z,472.43
2019-02-06T23:35:03.699Z,870.57
2019-02-06T23:37:44.358Z,1294.80
2019-02-06T23:40:25.324Z,329.80
2019-02-06T23:43:06.287Z,327.57
2019-02-06T23:45:48.806Z,404.33
2019-02-06T23:48:29.882Z,289.73
2019-02-06T23:51:10.645Z,341.60
2019-02-06T23:53:51.531Z,428.03
2019-02-06T23:56:33.271Z,325.60
2019-02-06T23:59:14.197Z,493.43
